sensor_id;sensor_type;location;lat;lon;timestamp;P1;durP1;ratioP1;P2;durP2;ratioP2
75400;SDS011;63974;47.538;18.972;2024-03-08T00:00:55;9.60;;;5.30;;
75400;SDS011;63974;47.538;18.972;2024-03-08T00:03:58;10.17;;;4.70;;
75400;SDS011;63974;47.538;18.972;2024-03-08T00:07:01;9.57;;;4.72;;
75400;SDS011;63974;47.538;18.972;2024-03-08T00:10:04;10.52;;;5.45;;
75400;SDS011;63974;47.538;18.972;2024-03-08T00:13:16;10.15;;;5.25;;
75400;SDS011;63974;47.538;18.972;2024-03-08T00:16:19;10.27;;;4.73;;
75400;SDS011;63974;47.538;18.972;2024-03-08T00:19:22;10.97;;;5.70;;
75400;SDS011;63974;47.538;18.972;2024-03-08T00:22:25;11.32;;;5.32;;
75400;SDS011;63974;47.538;18.972;2024-03-08T00:25:28;10.00;;;4.90;;
75400;SDS011;63974;47.538;18.972;2024-03-08T00:28:30;11.55;;;5.43;;
75400;SDS011;63974;47.538;18.972;2024-03-08T00:31:33;9.47;;;5.50;;
75400;SDS011;63974;47.538;18.972;2024-03-08T00:34:36;10.97;;;5.40;;
75400;SDS011;63974;47.538;18.972;2024-03-08T00:37:39;10.63;;;5.20;;
75400;SDS011;63974;47.538;18.972;2024-03-08T00:40:42;9.32;;;5.22;;
75400;SDS011;63974;47.538;18.972;2024-03-08T00:43:44;12.02;;;4.55;;
75400;SDS011;63974;47.538;18.972;2024-03-08T00:46:50;10.27;;;4.03;;
75400;SDS011;63974;47.538;18.972;2024-03-08T00:49:55;9.77;;;5.27;;
75400;SDS011;63974;47.538;18.972;2024-03-08T00:52:59;11.82;;;5.45;;
75400;SDS011;63974;47.538;18.972;2024-03-08T00:56:02;11.05;;;4.82;;
75400;SDS011;63974;47.538;18.972;2024-03-08T00:59:07;10.70;;;4.55;;
75400;SDS011;63974;47.538;18.972;2024-03-08T01:02:09;11.17;;;5.70;;
75400;SDS011;63974;47.538;18.972;2024-03-08T01:05:13;9.83;;;5.00;;
75400;SDS011;63974;47.538;18.972;2024-03-08T01:08:16;12.40;;;5.60;;
75400;SDS011;63974;47.538;18.972;2024-03-08T01:11:18;14.77;;;5.72;;
75400;SDS011;63974;47.538;18.972;2024-03-08T01:14:22;10.77;;;5.15;;
75400;SDS011;63974;47.538;18.972;2024-03-08T01:17:25;8.57;;;5.27;;
75400;SDS011;63974;47.538;18.972;2024-03-08T01:20:29;9.33;;;5.27;;
75400;SDS011;63974;47.538;18.972;2024-03-08T01:23:32;8.50;;;4.90;;
75400;SDS011;63974;47.538;18.972;2024-03-08T01:26:35;9.52;;;4.90;;
75400;SDS011;63974;47.538;18.972;2024-03-08T01:29:37;8.63;;;5.00;;
75400;SDS011;63974;47.538;18.972;2024-03-08T01:32:40;10.70;;;5.40;;
75400;SDS011;63974;47.538;18.972;2024-03-08T01:35:43;10.30;;;5.57;;
75400;SDS011;63974;47.538;18.972;2024-03-08T01:38:46;13.70;;;6.15;;
75400;SDS011;63974;47.538;18.972;2024-03-08T01:41:49;15.57;;;5.70;;
75400;SDS011;63974;47.538;18.972;2024-03-08T01:44:52;11.90;;;5.78;;
75400;SDS011;63974;47.538;18.972;2024-03-08T01:47:54;12.13;;;5.70;;
75400;SDS011;63974;47.538;18.972;2024-03-08T01:50:57;11.83;;;5.40;;
75400;SDS011;63974;47.538;18.972;2024-03-08T01:54:01;10.55;;;5.25;;
75400;SDS011;63974;47.538;18.972;2024-03-08T01:57:06;11.63;;;5.72;;
75400;SDS011;63974;47.538;18.972;2024-03-08T02:00:09;13.43;;;5.40;;
75400;SDS011;63974;47.538;18.972;2024-03-08T02:03:13;13.80;;;6.00;;
75400;SDS011;63974;47.538;18.972;2024-03-08T02:06:16;14.50;;;6.10;;
75400;SDS011;63974;47.538;18.972;2024-03-08T02:09:19;12.80;;;6.63;;
75400;SDS011;63974;47.538;18.972;2024-03-08T02:12:22;15.00;;;6.88;;
75400;SDS011;63974;47.538;18.972;2024-03-08T02:15:26;14.30;;;6.45;;
75400;SDS011;63974;47.538;18.972;2024-03-08T02:18:29;14.20;;;6.23;;
75400;SDS011;63974;47.538;18.972;2024-03-08T02:21:32;12.73;;;6.67;;
75400;SDS011;63974;47.538;18.972;2024-03-08T02:24:36;13.23;;;7.22;;
75400;SDS011;63974;47.538;18.972;2024-03-08T02:27:39;16.33;;;7.55;;
75400;SDS011;63974;47.538;18.972;2024-03-08T02:30:41;13.18;;;6.35;;
75400;SDS011;63974;47.538;18.972;2024-03-08T02:33:44;14.47;;;7.27;;
75400;SDS011;63974;47.538;18.972;2024-03-08T02:36:50;13.97;;;7.13;;
75400;SDS011;63974;47.538;18.972;2024-03-08T02:39:52;18.23;;;7.85;;
75400;SDS011;63974;47.538;18.972;2024-03-08T02:42:55;17.45;;;8.68;;
75400;SDS011;63974;47.538;18.972;2024-03-08T02:45:58;16.67;;;8.27;;
75400;SDS011;63974;47.538;18.972;2024-03-08T02:49:02;17.77;;;7.93;;
75400;SDS011;63974;47.538;18.972;2024-03-08T02:52:05;24.40;;;10.13;;
75400;SDS011;63974;47.538;18.972;2024-03-08T02:55:08;18.15;;;7.82;;
75400;SDS011;63974;47.538;18.972;2024-03-08T02:58:15;21.85;;;9.45;;
75400;SDS011;63974;47.538;18.972;2024-03-08T03:01:18;19.60;;;9.57;;
75400;SDS011;63974;47.538;18.972;2024-03-08T03:04:22;22.40;;;9.67;;
75400;SDS011;63974;47.538;18.972;2024-03-08T03:07:25;21.50;;;9.10;;
75400;SDS011;63974;47.538;18.972;2024-03-08T03:10:30;20.30;;;9.70;;
75400;SDS011;63974;47.538;18.972;2024-03-08T03:13:33;22.73;;;10.52;;
75400;SDS011;63974;47.538;18.972;2024-03-08T03:16:36;17.70;;;8.57;;
75400;SDS011;63974;47.538;18.972;2024-03-08T03:19:41;24.30;;;10.73;;
75400;SDS011;63974;47.538;18.972;2024-03-08T03:22:45;18.33;;;8.40;;
75400;SDS011;63974;47.538;18.972;2024-03-08T03:25:50;18.98;;;7.80;;
75400;SDS011;63974;47.538;18.972;2024-03-08T03:28:54;19.83;;;8.98;;
75400;SDS011;63974;47.538;18.972;2024-03-08T03:31:57;19.45;;;8.88;;
75400;SDS011;63974;47.538;18.972;2024-03-08T03:35:00;19.63;;;8.37;;
75400;SDS011;63974;47.538;18.972;2024-03-08T03:38:07;16.37;;;7.63;;
75400;SDS011;63974;47.538;18.972;2024-03-08T03:41:12;17.00;;;8.32;;
75400;SDS011;63974;47.538;18.972;2024-03-08T03:44:17;15.63;;;8.07;;
75400;SDS011;63974;47.538;18.972;2024-03-08T03:47:20;19.42;;;9.55;;
75400;SDS011;63974;47.538;18.972;2024-03-08T03:50:23;16.03;;;7.80;;
75400;SDS011;63974;47.538;18.972;2024-03-08T03:53:26;22.90;;;10.03;;
75400;SDS011;63974;47.538;18.972;2024-03-08T03:56:29;22.63;;;9.20;;
75400;SDS011;63974;47.538;18.972;2024-03-08T03:59:35;21.75;;;9.60;;
75400;SDS011;63974;47.538;18.972;2024-03-08T04:02:38;18.00;;;7.25;;
75400;SDS011;63974;47.538;18.972;2024-03-08T04:05:41;22.80;;;9.03;;
75400;SDS011;63974;47.538;18.972;2024-03-08T04:08:44;26.97;;;10.57;;
75400;SDS011;63974;47.538;18.972;2024-03-08T04:11:48;22.52;;;9.20;;
75400;SDS011;63974;47.538;18.972;2024-03-08T04:14:52;21.90;;;9.73;;
75400;SDS011;63974;47.538;18.972;2024-03-08T04:17:55;23.02;;;9.57;;
75400;SDS011;63974;47.538;18.972;2024-03-08T04:20:59;23.00;;;9.70;;
75400;SDS011;63974;47.538;18.972;2024-03-08T04:24:04;23.27;;;10.03;;
75400;SDS011;63974;47.538;18.972;2024-03-08T04:27:08;22.85;;;10.13;;
75400;SDS011;63974;47.538;18.972;2024-03-08T04:30:11;23.92;;;10.32;;
75400;SDS011;63974;47.538;18.972;2024-03-08T04:33:15;24.17;;;9.18;;
75400;SDS011;63974;47.538;18.972;2024-03-08T04:36:20;21.50;;;9.13;;
75400;SDS011;63974;47.538;18.972;2024-03-08T04:39:23;23.47;;;9.43;;
75400;SDS011;63974;47.538;18.972;2024-03-08T04:42:27;22.73;;;10.35;;
75400;SDS011;63974;47.538;18.972;2024-03-08T04:45:32;19.73;;;9.15;;
75400;SDS011;63974;47.538;18.972;2024-03-08T04:48:36;22.40;;;9.25;;
75400;SDS011;63974;47.538;18.972;2024-03-08T04:51:39;21.07;;;10.03;;
75400;SDS011;63974;47.538;18.972;2024-03-08T04:54:42;22.67;;;9.47;;
75400;SDS011;63974;47.538;18.972;2024-03-08T04:57:47;24.33;;;9.63;;
75400;SDS011;63974;47.538;18.972;2024-03-08T05:00:52;23.73;;;9.77;;
75400;SDS011;63974;47.538;18.972;2024-03-08T05:03:54;25.88;;;9.45;;
75400;SDS011;63974;47.538;18.972;2024-03-08T05:07:02;29.50;;;11.30;;
75400;SDS011;63974;47.538;18.972;2024-03-08T05:10:06;25.07;;;10.27;;
75400;SDS011;63974;47.538;18.972;2024-03-08T05:13:10;23.95;;;9.48;;
75400;SDS011;63974;47.538;18.972;2024-03-08T05:16:12;24.58;;;8.82;;
75400;SDS011;63974;47.538;18.972;2024-03-08T05:19:18;21.33;;;9.23;;
75400;SDS011;63974;47.538;18.972;2024-03-08T05:22:22;22.37;;;8.83;;
75400;SDS011;63974;47.538;18.972;2024-03-08T05:25:25;23.23;;;8.80;;
75400;SDS011;63974;47.538;18.972;2024-03-08T05:28:28;25.05;;;10.40;;
75400;SDS011;63974;47.538;18.972;2024-03-08T05:31:38;24.60;;;9.95;;
75400;SDS011;63974;47.538;18.972;2024-03-08T05:34:49;20.92;;;9.10;;
75400;SDS011;63974;47.538;18.972;2024-03-08T05:37:52;22.53;;;9.33;;
75400;SDS011;63974;47.538;18.972;2024-03-08T05:40:55;22.40;;;9.07;;
75400;SDS011;63974;47.538;18.972;2024-03-08T05:43:57;21.67;;;8.90;;
75400;SDS011;63974;47.538;18.972;2024-03-08T05:47:03;19.67;;;9.07;;
75400;SDS011;63974;47.538;18.972;2024-03-08T05:50:06;25.90;;;10.88;;
75400;SDS011;63974;47.538;18.972;2024-03-08T05:53:13;25.67;;;10.17;;
75400;SDS011;63974;47.538;18.972;2024-03-08T05:56:15;23.40;;;9.60;;
75400;SDS011;63974;47.538;18.972;2024-03-08T05:59:18;28.23;;;10.23;;
75400;SDS011;63974;47.538;18.972;2024-03-08T06:02:21;21.27;;;9.25;;
75400;SDS011;63974;47.538;18.972;2024-03-08T06:05:24;24.27;;;8.15;;
75400;SDS011;63974;47.538;18.972;2024-03-08T06:08:27;19.43;;;8.27;;
75400;SDS011;63974;47.538;18.972;2024-03-08T06:11:33;19.17;;;7.67;;
75400;SDS011;63974;47.538;18.972;2024-03-08T06:14:36;18.17;;;7.18;;
75400;SDS011;63974;47.538;18.972;2024-03-08T06:17:38;13.20;;;6.45;;
75400;SDS011;63974;47.538;18.972;2024-03-08T06:20:41;18.23;;;7.30;;
75400;SDS011;63974;47.538;18.972;2024-03-08T06:23:46;17.70;;;7.23;;
75400;SDS011;63974;47.538;18.972;2024-03-08T06:26:49;18.53;;;8.57;;
75400;SDS011;63974;47.538;18.972;2024-03-08T06:29:51;21.70;;;9.65;;
75400;SDS011;63974;47.538;18.972;2024-03-08T06:32:54;27.17;;;11.02;;
75400;SDS011;63974;47.538;18.972;2024-03-08T06:35:57;28.83;;;10.45;;
75400;SDS011;63974;47.538;18.972;2024-03-08T06:39:00;27.77;;;11.20;;
75400;SDS011;63974;47.538;18.972;2024-03-08T06:42:03;21.93;;;10.90;;
75400;SDS011;63974;47.538;18.972;2024-03-08T06:45:07;28.60;;;12.23;;
75400;SDS011;63974;47.538;18.972;2024-03-08T06:48:11;28.40;;;11.88;;
75400;SDS011;63974;47.538;18.972;2024-03-08T06:51:15;30.77;;;12.38;;
75400;SDS011;63974;47.538;18.972;2024-03-08T06:54:18;34.43;;;12.23;;
75400;SDS011;63974;47.538;18.972;2024-03-08T06:57:21;31.53;;;12.07;;
75400;SDS011;63974;47.538;18.972;2024-03-08T07:00:24;27.13;;;12.38;;
75400;SDS011;63974;47.538;18.972;2024-03-08T07:03:29;27.85;;;11.60;;
75400;SDS011;63974;47.538;18.972;2024-03-08T07:06:32;29.92;;;11.65;;
75400;SDS011;63974;47.538;18.972;2024-03-08T07:09:39;30.03;;;11.53;;
75400;SDS011;63974;47.538;18.972;2024-03-08T07:12:42;25.27;;;11.23;;
75400;SDS011;63974;47.538;18.972;2024-03-08T07:15:45;26.85;;;11.60;;
75400;SDS011;63974;47.538;18.972;2024-03-08T07:18:48;30.85;;;12.48;;
75400;SDS011;63974;47.538;18.972;2024-03-08T07:21:54;30.98;;;13.73;;
75400;SDS011;63974;47.538;18.972;2024-03-08T07:24:57;27.83;;;12.90;;
75400;SDS011;63974;47.538;18.972;2024-03-08T07:28:12;29.40;;;13.80;;
75400;SDS011;63974;47.538;18.972;2024-03-08T07:31:15;31.67;;;13.20;;
75400;SDS011;63974;47.538;18.972;2024-03-08T07:34:37;30.98;;;13.15;;
75400;SDS011;63974;47.538;18.972;2024-03-08T07:37:42;32.45;;;14.13;;
75400;SDS011;63974;47.538;18.972;2024-03-08T07:40:46;31.10;;;15.60;;
75400;SDS011;63974;47.538;18.972;2024-03-08T07:43:51;33.47;;;14.07;;
75400;SDS011;63974;47.538;18.972;2024-03-08T07:46:57;30.45;;;13.38;;
75400;SDS011;63974;47.538;18.972;2024-03-08T07:50:01;31.67;;;14.98;;
75400;SDS011;63974;47.538;18.972;2024-03-08T07:53:09;32.47;;;14.48;;
75400;SDS011;63974;47.538;18.972;2024-03-08T07:56:12;37.03;;;15.40;;
75400;SDS011;63974;47.538;18.972;2024-03-08T07:59:16;43.77;;;17.20;;
75400;SDS011;63974;47.538;18.972;2024-03-08T08:02:19;42.70;;;18.02;;
75400;SDS011;63974;47.538;18.972;2024-03-08T08:05:22;46.22;;;17.15;;
75400;SDS011;63974;47.538;18.972;2024-03-08T08:08:25;40.05;;;15.90;;
75400;SDS011;63974;47.538;18.972;2024-03-08T08:11:28;31.60;;;13.73;;
75400;SDS011;63974;47.538;18.972;2024-03-08T08:14:31;39.63;;;15.07;;
75400;SDS011;63974;47.538;18.972;2024-03-08T08:17:34;38.47;;;15.23;;
75400;SDS011;63974;47.538;18.972;2024-03-08T08:20:37;45.85;;;17.45;;
75400;SDS011;63974;47.538;18.972;2024-03-08T08:23:41;43.33;;;15.25;;
75400;SDS011;63974;47.538;18.972;2024-03-08T08:26:44;49.30;;;18.07;;
75400;SDS011;63974;47.538;18.972;2024-03-08T08:29:49;52.23;;;19.13;;
75400;SDS011;63974;47.538;18.972;2024-03-08T08:32:52;46.83;;;18.27;;
75400;SDS011;63974;47.538;18.972;2024-03-08T08:35:55;52.38;;;19.60;;
75400;SDS011;63974;47.538;18.972;2024-03-08T08:38:58;48.63;;;18.13;;
75400;SDS011;63974;47.538;18.972;2024-03-08T08:42:01;52.67;;;18.37;;
75400;SDS011;63974;47.538;18.972;2024-03-08T08:45:05;47.40;;;16.80;;
75400;SDS011;63974;47.538;18.972;2024-03-08T08:48:18;40.28;;;15.30;;
75400;SDS011;63974;47.538;18.972;2024-03-08T08:51:21;42.83;;;16.20;;
75400;SDS011;63974;47.538;18.972;2024-03-08T08:54:25;37.53;;;15.68;;
75400;SDS011;63974;47.538;18.972;2024-03-08T08:57:29;49.63;;;17.53;;
75400;SDS011;63974;47.538;18.972;2024-03-08T09:00:35;36.33;;;16.33;;
75400;SDS011;63974;47.538;18.972;2024-03-08T09:03:38;38.25;;;15.95;;
75400;SDS011;63974;47.538;18.972;2024-03-08T09:06:42;42.92;;;17.33;;
75400;SDS011;63974;47.538;18.972;2024-03-08T09:09:47;42.22;;;16.52;;
75400;SDS011;63974;47.538;18.972;2024-03-08T09:12:50;38.33;;;14.93;;
75400;SDS011;63974;47.538;18.972;2024-03-08T09:15:53;41.53;;;16.17;;
75400;SDS011;63974;47.538;18.972;2024-03-08T09:18:56;41.08;;;16.77;;
75400;SDS011;63974;47.538;18.972;2024-03-08T09:21:59;39.33;;;15.45;;
75400;SDS011;63974;47.538;18.972;2024-03-08T09:25:02;35.30;;;15.13;;
75400;SDS011;63974;47.538;18.972;2024-03-08T09:28:08;38.20;;;15.80;;
75400;SDS011;63974;47.538;18.972;2024-03-08T09:31:11;38.63;;;15.43;;
75400;SDS011;63974;47.538;18.972;2024-03-08T09:34:14;39.50;;;15.10;;
75400;SDS011;63974;47.538;18.972;2024-03-08T09:37:26;39.10;;;15.48;;
75400;SDS011;63974;47.538;18.972;2024-03-08T09:40:29;38.45;;;15.00;;
75400;SDS011;63974;47.538;18.972;2024-03-08T09:43:32;39.80;;;16.67;;
75400;SDS011;63974;47.538;18.972;2024-03-08T09:46:35;48.90;;;17.77;;
75400;SDS011;63974;47.538;18.972;2024-03-08T09:49:40;49.45;;;17.17;;
75400;SDS011;63974;47.538;18.972;2024-03-08T09:52:47;40.92;;;15.25;;
75400;SDS011;63974;47.538;18.972;2024-03-08T09:55:53;42.22;;;15.30;;
75400;SDS011;63974;47.538;18.972;2024-03-08T09:58:57;42.67;;;16.43;;
75400;SDS011;63974;47.538;18.972;2024-03-08T10:02:18;44.47;;;15.10;;
75400;SDS011;63974;47.538;18.972;2024-03-08T10:05:23;36.63;;;15.52;;
75400;SDS011;63974;47.538;18.972;2024-03-08T10:08:30;43.33;;;15.02;;
75400;SDS011;63974;47.538;18.972;2024-03-08T10:11:33;38.70;;;15.10;;
75400;SDS011;63974;47.538;18.972;2024-03-08T10:14:38;39.13;;;15.17;;
75400;SDS011;63974;47.538;18.972;2024-03-08T10:17:44;37.77;;;13.47;;
75400;SDS011;63974;47.538;18.972;2024-03-08T10:21:01;39.92;;;15.85;;
75400;SDS011;63974;47.538;18.972;2024-03-08T10:24:09;45.63;;;16.83;;
75400;SDS011;63974;47.538;18.972;2024-03-08T10:27:13;36.72;;;15.90;;
75400;SDS011;63974;47.538;18.972;2024-03-08T10:30:16;38.80;;;15.77;;
75400;SDS011;63974;47.538;18.972;2024-03-08T10:33:24;43.37;;;16.17;;
75400;SDS011;63974;47.538;18.972;2024-03-08T10:36:28;42.05;;;14.70;;
75400;SDS011;63974;47.538;18.972;2024-03-08T10:39:34;39.50;;;14.88;;
75400;SDS011;63974;47.538;18.972;2024-03-08T10:42:52;39.08;;;14.57;;
75400;SDS011;63974;47.538;18.972;2024-03-08T10:50:17;41.97;;;15.47;;
75400;SDS011;63974;47.538;18.972;2024-03-08T10:53:28;35.92;;;14.02;;
75400;SDS011;63974;47.538;18.972;2024-03-08T10:56:34;43.53;;;16.33;;
75400;SDS011;63974;47.538;18.972;2024-03-08T10:59:37;35.75;;;13.88;;
75400;SDS011;63974;47.538;18.972;2024-03-08T11:02:43;34.97;;;13.73;;
75400;SDS011;63974;47.538;18.972;2024-03-08T11:05:46;38.77;;;15.70;;
75400;SDS011;63974;47.538;18.972;2024-03-08T11:08:51;38.30;;;15.50;;
75400;SDS011;63974;47.538;18.972;2024-03-08T11:12:17;37.83;;;14.68;;
75400;SDS011;63974;47.538;18.972;2024-03-08T11:15:29;40.08;;;13.35;;
75400;SDS011;63974;47.538;18.972;2024-03-08T11:18:32;34.07;;;13.80;;
75400;SDS011;63974;47.538;18.972;2024-03-08T11:21:40;35.00;;;13.97;;
75400;SDS011;63974;47.538;18.972;2024-03-08T11:24:46;33.65;;;14.40;;
75400;SDS011;63974;47.538;18.972;2024-03-08T11:28:06;32.20;;;13.60;;
75400;SDS011;63974;47.538;18.972;2024-03-08T11:34:15;33.83;;;14.57;;
75400;SDS011;63974;47.538;18.972;2024-03-08T11:37:19;32.40;;;13.37;;
75400;SDS011;63974;47.538;18.972;2024-03-08T11:40:23;31.45;;;13.13;;
75400;SDS011;63974;47.538;18.972;2024-03-08T11:43:35;32.13;;;12.40;;
75400;SDS011;63974;47.538;18.972;2024-03-08T11:46:39;30.75;;;12.40;;
75400;SDS011;63974;47.538;18.972;2024-03-08T11:49:46;27.73;;;12.13;;
75400;SDS011;63974;47.538;18.972;2024-03-08T11:52:51;28.17;;;12.52;;
75400;SDS011;63974;47.538;18.972;2024-03-08T11:55:54;30.83;;;12.02;;
75400;SDS011;63974;47.538;18.972;2024-03-08T11:58:56;25.80;;;11.95;;
75400;SDS011;63974;47.538;18.972;2024-03-08T12:02:01;28.48;;;12.50;;
75400;SDS011;63974;47.538;18.972;2024-03-08T12:05:06;29.23;;;12.37;;
75400;SDS011;63974;47.538;18.972;2024-03-08T12:08:11;24.33;;;11.15;;
75400;SDS011;63974;47.538;18.972;2024-03-08T12:11:15;30.33;;;11.82;;
75400;SDS011;63974;47.538;18.972;2024-03-08T12:14:20;23.45;;;11.73;;
75400;SDS011;63974;47.538;18.972;2024-03-08T12:17:24;27.65;;;12.15;;
75400;SDS011;63974;47.538;18.972;2024-03-08T12:20:28;31.13;;;13.07;;
75400;SDS011;63974;47.538;18.972;2024-03-08T12:23:34;31.50;;;12.68;;
75400;SDS011;63974;47.538;18.972;2024-03-08T12:26:38;29.15;;;13.23;;
75400;SDS011;63974;47.538;18.972;2024-03-08T12:29:42;32.58;;;13.82;;
75400;SDS011;63974;47.538;18.972;2024-03-08T12:32:52;31.42;;;13.02;;
75400;SDS011;63974;47.538;18.972;2024-03-08T12:35:59;28.60;;;12.87;;
75400;SDS011;63974;47.538;18.972;2024-03-08T12:39:02;28.48;;;12.70;;
75400;SDS011;63974;47.538;18.972;2024-03-08T12:42:08;31.15;;;12.98;;
75400;SDS011;63974;47.538;18.972;2024-03-08T12:45:11;31.05;;;13.50;;
75400;SDS011;63974;47.538;18.972;2024-03-08T12:48:14;26.77;;;12.60;;
75400;SDS011;63974;47.538;18.972;2024-03-08T12:51:18;26.17;;;11.40;;
75400;SDS011;63974;47.538;18.972;2024-03-08T12:54:22;27.20;;;11.73;;
75400;SDS011;63974;47.538;18.972;2024-03-08T12:57:26;26.25;;;12.80;;
75400;SDS011;63974;47.538;18.972;2024-03-08T13:00:30;25.40;;;10.93;;
75400;SDS011;63974;47.538;18.972;2024-03-08T13:03:34;26.80;;;11.88;;
75400;SDS011;63974;47.538;18.972;2024-03-08T13:06:38;25.03;;;11.50;;
75400;SDS011;63974;47.538;18.972;2024-03-08T13:09:41;20.63;;;9.93;;
75400;SDS011;63974;47.538;18.972;2024-03-08T13:12:45;26.42;;;12.27;;
75400;SDS011;63974;47.538;18.972;2024-03-08T13:15:48;22.25;;;11.57;;
75400;SDS011;63974;47.538;18.972;2024-03-08T13:18:51;21.85;;;10.82;;
75400;SDS011;63974;47.538;18.972;2024-03-08T13:21:56;21.20;;;9.57;;
75400;SDS011;63974;47.538;18.972;2024-03-08T13:24:59;21.48;;;10.68;;
75400;SDS011;63974;47.538;18.972;2024-03-08T13:28:03;21.70;;;10.25;;
75400;SDS011;63974;47.538;18.972;2024-03-08T13:31:07;24.63;;;11.13;;
75400;SDS011;63974;47.538;18.972;2024-03-08T13:34:12;28.20;;;10.48;;
75400;SDS011;63974;47.538;18.972;2024-03-08T13:37:17;22.60;;;11.17;;
75400;SDS011;63974;47.538;18.972;2024-03-08T13:40:22;24.65;;;11.15;;
75400;SDS011;63974;47.538;18.972;2024-03-08T13:43:25;23.98;;;10.73;;
75400;SDS011;63974;47.538;18.972;2024-03-08T13:46:31;23.88;;;11.13;;
75400;SDS011;63974;47.538;18.972;2024-03-08T13:49:34;18.98;;;9.57;;
75400;SDS011;63974;47.538;18.972;2024-03-08T13:52:39;27.47;;;10.30;;
75400;SDS011;63974;47.538;18.972;2024-03-08T13:55:43;23.92;;;11.02;;
75400;SDS011;63974;47.538;18.972;2024-03-08T13:58:45;21.17;;;9.82;;
75400;SDS011;63974;47.538;18.972;2024-03-08T14:01:50;23.73;;;10.68;;
75400;SDS011;63974;47.538;18.972;2024-03-08T14:04:56;23.80;;;11.32;;
75400;SDS011;63974;47.538;18.972;2024-03-08T14:07:59;24.47;;;9.97;;
75400;SDS011;63974;47.538;18.972;2024-03-08T14:11:04;28.48;;;12.38;;
75400;SDS011;63974;47.538;18.972;2024-03-08T14:14:16;26.27;;;11.60;;
75400;SDS011;63974;47.538;18.972;2024-03-08T14:17:20;23.88;;;10.30;;
75400;SDS011;63974;47.538;18.972;2024-03-08T14:20:23;24.17;;;11.80;;
75400;SDS011;63974;47.538;18.972;2024-03-08T14:23:28;25.43;;;11.13;;
75400;SDS011;63974;47.538;18.972;2024-03-08T14:26:31;26.73;;;11.13;;
75400;SDS011;63974;47.538;18.972;2024-03-08T14:29:33;25.95;;;11.88;;
75400;SDS011;63974;47.538;18.972;2024-03-08T14:32:36;28.70;;;12.18;;
75400;SDS011;63974;47.538;18.972;2024-03-08T14:35:43;27.13;;;11.93;;
75400;SDS011;63974;47.538;18.972;2024-03-08T14:38:46;30.57;;;12.97;;
75400;SDS011;63974;47.538;18.972;2024-03-08T14:41:49;25.48;;;12.52;;
75400;SDS011;63974;47.538;18.972;2024-03-08T14:44:56;26.65;;;11.90;;
75400;SDS011;63974;47.538;18.972;2024-03-08T14:47:59;23.67;;;12.23;;
75400;SDS011;63974;47.538;18.972;2024-03-08T14:51:02;24.98;;;11.00;;
75400;SDS011;63974;47.538;18.972;2024-03-08T14:54:06;26.60;;;11.77;;
75400;SDS011;63974;47.538;18.972;2024-03-08T14:57:09;41.88;;;18.42;;
75400;SDS011;63974;47.538;18.972;2024-03-08T15:00:12;94.20;;;42.35;;
75400;SDS011;63974;47.538;18.972;2024-03-08T15:03:19;65.72;;;26.15;;
75400;SDS011;63974;47.538;18.972;2024-03-08T15:06:22;30.55;;;14.07;;
75400;SDS011;63974;47.538;18.972;2024-03-08T15:09:27;27.63;;;11.83;;
75400;SDS011;63974;47.538;18.972;2024-03-08T15:12:29;25.20;;;11.48;;
75400;SDS011;63974;47.538;18.972;2024-03-08T15:15:32;27.15;;;12.23;;
75400;SDS011;63974;47.538;18.972;2024-03-08T15:18:35;25.88;;;11.10;;
75400;SDS011;63974;47.538;18.972;2024-03-08T15:21:38;25.00;;;11.68;;
75400;SDS011;63974;47.538;18.972;2024-03-08T15:24:41;26.20;;;11.57;;
75400;SDS011;63974;47.538;18.972;2024-03-08T15:27:48;39.22;;;16.35;;
75400;SDS011;63974;47.538;18.972;2024-03-08T15:30:51;36.17;;;17.65;;
75400;SDS011;63974;47.538;18.972;2024-03-08T15:33:57;37.20;;;18.52;;
75400;SDS011;63974;47.538;18.972;2024-03-08T15:37:07;26.67;;;12.77;;
75400;SDS011;63974;47.538;18.972;2024-03-08T15:40:10;27.67;;;13.73;;
75400;SDS011;63974;47.538;18.972;2024-03-08T15:43:23;29.05;;;12.68;;
75400;SDS011;63974;47.538;18.972;2024-03-08T15:46:28;28.00;;;11.90;;
75400;SDS011;63974;47.538;18.972;2024-03-08T15:49:31;25.52;;;11.50;;
75400;SDS011;63974;47.538;18.972;2024-03-08T15:52:33;27.92;;;12.15;;
75400;SDS011;63974;47.538;18.972;2024-03-08T15:55:36;26.13;;;12.50;;
75400;SDS011;63974;47.538;18.972;2024-03-08T15:58:43;25.67;;;11.48;;
75400;SDS011;63974;47.538;18.972;2024-03-08T16:01:46;25.15;;;11.20;;
75400;SDS011;63974;47.538;18.972;2024-03-08T16:04:54;23.27;;;10.35;;
75400;SDS011;63974;47.538;18.972;2024-03-08T16:07:58;25.55;;;12.38;;
75400;SDS011;63974;47.538;18.972;2024-03-08T16:11:01;26.77;;;11.83;;
75400;SDS011;63974;47.538;18.972;2024-03-08T16:14:08;26.83;;;12.50;;
75400;SDS011;63974;47.538;18.972;2024-03-08T16:17:13;25.50;;;12.90;;
75400;SDS011;63974;47.538;18.972;2024-03-08T16:20:16;27.92;;;13.95;;
75400;SDS011;63974;47.538;18.972;2024-03-08T16:23:20;29.50;;;13.88;;
75400;SDS011;63974;47.538;18.972;2024-03-08T16:26:23;34.60;;;15.33;;
75400;SDS011;63974;47.538;18.972;2024-03-08T16:29:26;32.80;;;15.80;;
75400;SDS011;63974;47.538;18.972;2024-03-08T16:32:29;38.20;;;19.45;;
75400;SDS011;63974;47.538;18.972;2024-03-08T16:35:32;36.05;;;17.30;;
75400;SDS011;63974;47.538;18.972;2024-03-08T16:38:35;37.60;;;17.02;;
75400;SDS011;63974;47.538;18.972;2024-03-08T16:41:40;33.37;;;16.17;;
75400;SDS011;63974;47.538;18.972;2024-03-08T16:44:43;29.95;;;13.60;;
75400;SDS011;63974;47.538;18.972;2024-03-08T16:47:46;32.58;;;14.60;;
75400;SDS011;63974;47.538;18.972;2024-03-08T16:50:49;31.25;;;14.48;;
75400;SDS011;63974;47.538;18.972;2024-03-08T16:53:52;32.50;;;14.30;;
75400;SDS011;63974;47.538;18.972;2024-03-08T16:56:55;30.13;;;14.50;;
75400;SDS011;63974;47.538;18.972;2024-03-08T16:59:59;33.53;;;15.48;;
75400;SDS011;63974;47.538;18.972;2024-03-08T17:03:02;29.45;;;14.88;;
75400;SDS011;63974;47.538;18.972;2024-03-08T17:06:05;27.73;;;13.70;;
75400;SDS011;63974;47.538;18.972;2024-03-08T17:09:08;33.05;;;16.45;;
75400;SDS011;63974;47.538;18.972;2024-03-08T17:12:14;31.83;;;14.03;;
75400;SDS011;63974;47.538;18.972;2024-03-08T17:15:21;27.63;;;12.73;;
75400;SDS011;63974;47.538;18.972;2024-03-08T17:18:25;32.10;;;16.63;;
75400;SDS011;63974;47.538;18.972;2024-03-08T17:21:28;36.42;;;18.25;;
75400;SDS011;63974;47.538;18.972;2024-03-08T17:24:31;37.63;;;16.05;;
75400;SDS011;63974;47.538;18.972;2024-03-08T17:27:34;31.20;;;15.00;;
75400;SDS011;63974;47.538;18.972;2024-03-08T17:30:38;34.22;;;15.07;;
75400;SDS011;63974;47.538;18.972;2024-03-08T17:33:43;28.52;;;14.15;;
75400;SDS011;63974;47.538;18.972;2024-03-08T17:36:47;46.55;;;20.08;;
75400;SDS011;63974;47.538;18.972;2024-03-08T17:39:54;30.48;;;12.73;;
75400;SDS011;63974;47.538;18.972;2024-03-08T17:42:59;27.73;;;12.80;;
75400;SDS011;63974;47.538;18.972;2024-03-08T17:46:09;28.17;;;12.23;;
75400;SDS011;63974;47.538;18.972;2024-03-08T17:49:15;29.63;;;13.65;;
75400;SDS011;63974;47.538;18.972;2024-03-08T17:52:18;32.03;;;13.27;;
75400;SDS011;63974;47.538;18.972;2024-03-08T17:55:22;29.48;;;13.30;;